sensor_id;sensor_type;location;lat;lon;timestamp;temperature;humidity
53264;DHT22;39153;52.680;6.172;2023-03-19T00:02:04;11.30;99.90
53264;DHT22;39153;52.680;6.172;2023-03-19T00:04:30;11.30;99.90
53264;DHT22;39153;52.680;6.172;2023-03-19T00:06:57;11.30;99.90
53264;DHT22;39153;52.680;6.172;2023-03-19T00:09:22;11.20;99.90
53264;DHT22;39153;52.680;6.172;2023-03-19T00:11:48;11.20;99.90
53264;DHT22;39153;52.680;6.172;2023-03-19T00:14:15;11.30;99.90
53264;DHT22;39153;52.680;6.172;2023-03-19T00:16:41;11.20;99.90
53264;DHT22;39153;52.680;6.172;2023-03-19T00:19:07;11.20;99.90
53264;DHT22;39153;52.680;6.172;2023-03-19T00:21:33;11.20;99.90
53264;DHT22;39153;52.680;6.172;2023-03-19T00:23:59;11.10;99.90
53264;DHT22;39153;52.680;6.172;2023-03-19T00:26:32;11.20;99.90
53264;DHT22;39153;52.680;6.172;2023-03-19T00:28:58;11.10;99.90
53264;DHT22;39153;52.680;6.172;2023-03-19T00:31:25;11.10;99.90
53264;DHT22;39153;52.680;6.172;2023-03-19T00:33:51;11.10;99.90
53264;DHT22;39153;52.680;6.172;2023-03-19T00:36:17;11.10;99.90
53264;DHT22;39153;52.680;6.172;2023-03-19T00:38:45;11.10;99.90
53264;DHT22;39153;52.680;6.172;2023-03-19T00:41:11;11.10;99.90
53264;DHT22;39153;52.680;6.172;2023-03-19T00:43:37;11.10;99.90
53264;DHT22;39153;52.680;6.172;2023-03-19T00:46:04;11.10;99.90
53264;DHT22;39153;52.680;6.172;2023-03-19T00:48:29;11.10;99.90
53264;DHT22;39153;52.680;6.172;2023-03-19T00:51:01;11.10;99.90
53264;DHT22;39153;52.680;6.172;2023-03-19T00:53:27;11.10;99.90
53264;DHT22;39153;52.680;6.172;2023-03-19T00:55:53;11.10;99.90
53264;DHT22;39153;52.680;6.172;2023-03-19T00:58:19;11.00;99.90
53264;DHT22;39153;52.680;6.172;2023-03-19T01:00:44;11.00;99.90
53264;DHT22;39153;52.680;6.172;2023-03-19T01:03:10;11.10;99.90
53264;DHT22;39153;52.680;6.172;2023-03-19T01:05:36;11.00;99.90
53264;DHT22;39153;52.680;6.172;2023-03-19T01:08:02;10.90;99.90
53264;DHT22;39153;52.680;6.172;2023-03-19T01:10:28;10.90;99.90
53264;DHT22;39153;52.680;6.172;2023-03-19T01:12:53;10.90;99.90
53264;DHT22;39153;52.680;6.172;2023-03-19T01:15:19;10.80;99.90
53264;DHT22;39153;52.680;6.172;2023-03-19T01:17:45;10.80;99.90
53264;DHT22;39153;52.680;6.172;2023-03-19T01:20:11;10.80;99.90
53264;DHT22;39153;52.680;6.172;2023-03-19T01:22:41;10.70;99.90
53264;DHT22;39153;52.680;6.172;2023-03-19T01:25:09;10.70;99.90
53264;DHT22;39153;52.680;6.172;2023-03-19T01:27:35;10.70;99.90
53264;DHT22;39153;52.680;6.172;2023-03-19T01:30:01;10.60;99.90
53264;DHT22;39153;52.680;6.172;2023-03-19T01:32:27;10.60;99.90
53264;DHT22;39153;52.680;6.172;2023-03-19T01:34:53;10.50;99.90
53264;DHT22;39153;52.680;6.172;2023-03-19T01:37:19;10.60;99.90
53264;DHT22;39153;52.680;6.172;2023-03-19T01:39:45;10.50;99.90
53264;DHT22;39153;52.680;6.172;2023-03-19T01:42:11;10.50;99.90
53264;DHT22;39153;52.680;6.172;2023-03-19T01:44:38;10.50;99.90
53264;DHT22;39153;52.680;6.172;2023-03-19T01:49:47;10.40;99.90
53264;DHT22;39153;52.680;6.172;2023-03-19T01:52:15;10.50;99.90
53264;DHT22;39153;52.680;6.172;2023-03-19T01:54:42;10.50;99.90
53264;DHT22;39153;52.680;6.172;2023-03-19T01:57:11;10.40;99.90
53264;DHT22;39153;52.680;6.172;2023-03-19T01:59:44;10.40;99.90
53264;DHT22;39153;52.680;6.172;2023-03-19T02:02:27;10.30;99.90
53264;DHT22;39153;52.680;6.172;2023-03-19T02:05:11;10.30;99.90
53264;DHT22;39153;52.680;6.172;2023-03-19T02:07:40;10.40;99.90
53264;DHT22;39153;52.680;6.172;2023-03-19T02:10:13;10.30;99.90
53264;DHT22;39153;52.680;6.172;2023-03-19T02:12:39;10.30;99.90
53264;DHT22;39153;52.680;6.172;2023-03-19T02:15:05;10.40;99.90
53264;DHT22;39153;52.680;6.172;2023-03-19T02:17:32;10.30;99.90
53264;DHT22;39153;52.680;6.172;2023-03-19T02:20:23;10.40;99.90
53264;DHT22;39153;52.680;6.172;2023-03-19T02:26:01;10.40;99.90
53264;DHT22;39153;52.680;6.172;2023-03-19T02:28:28;10.30;99.90
53264;DHT22;39153;52.680;6.172;2023-03-19T02:30:54;10.40;99.90
53264;DHT22;39153;52.680;6.172;2023-03-19T02:33:20;10.30;99.90
53264;DHT22;39153;52.680;6.172;2023-03-19T02:35:48;10.30;99.90
53264;DHT22;39153;52.680;6.172;2023-03-19T02:38:15;10.30;99.90
53264;DHT22;39153;52.680;6.172;2023-03-19T02:40:47;10.40;99.90
53264;DHT22;39153;52.680;6.172;2023-03-19T02:43:14;10.30;99.90
53264;DHT22;39153;52.680;6.172;2023-03-19T02:45:40;10.30;99.90
53264;DHT22;39153;52.680;6.172;2023-03-19T02:48:06;10.20;99.90
53264;DHT22;39153;52.680;6.172;2023-03-19T02:50:32;10.20;99.90
53264;DHT22;39153;52.680;6.172;2023-03-19T02:52:57;10.20;99.90
53264;DHT22;39153;52.680;6.172;2023-03-19T02:55:23;10.10;99.90
53264;DHT22;39153;52.680;6.172;2023-03-19T02:57:49;10.00;99.90
53264;DHT22;39153;52.680;6.172;2023-03-19T03:00:15;10.10;99.90
53264;DHT22;39153;52.680;6.172;2023-03-19T03:02:45;10.00;99.90
53264;DHT22;39153;52.680;6.172;2023-03-19T03:05:11;10.00;99.90
53264;DHT22;39153;52.680;6.172;2023-03-19T03:07:38;10.10;99.90
53264;DHT22;39153;52.680;6.172;2023-03-19T03:10:05;10.00;99.90
53264;DHT22;39153;52.680;6.172;2023-03-19T03:12:31;10.10;99.90
53264;DHT22;39153;52.680;6.172;2023-03-19T03:14:57;10.00;99.90
53264;DHT22;39153;52.680;6.172;2023-03-19T03:17:22;10.00;99.90
53264;DHT22;39153;52.680;6.172;2023-03-19T03:19:48;10.10;99.90
53264;DHT22;39153;52.680;6.172;2023-03-19T03:22:14;10.00;99.90
53264;DHT22;39153;52.680;6.172;2023-03-19T03:24:40;9.90;99.90
53264;DHT22;39153;52.680;6.172;2023-03-19T03:27:05;10.10;99.90
53264;DHT22;39153;52.680;6.172;2023-03-19T03:29:31;10.00;99.90
53264;DHT22;39153;52.680;6.172;2023-03-19T03:31:57;10.00;99.90
53264;DHT22;39153;52.680;6.172;2023-03-19T03:34:22;10.00;99.90
53264;DHT22;39153;52.680;6.172;2023-03-19T03:36:48;9.90;99.90
53264;DHT22;39153;52.680;6.172;2023-03-19T03:39:13;9.90;99.90
53264;DHT22;39153;52.680;6.172;2023-03-19T03:41:39;9.90;99.90
53264;DHT22;39153;52.680;6.172;2023-03-19T03:44:05;9.90;99.90
53264;DHT22;39153;52.680;6.172;2023-03-19T03:46:31;10.00;99.90
53264;DHT22;39153;52.680;6.172;2023-03-19T03:48:56;9.90;99.90
53264;DHT22;39153;52.680;6.172;2023-03-19T03:51:22;9.90;99.90
53264;DHT22;39153;52.680;6.172;2023-03-19T03:53:48;9.80;99.90
53264;DHT22;39153;52.680;6.172;2023-03-19T03:56:14;9.90;99.90
53264;DHT22;39153;52.680;6.172;2023-03-19T03:58:39;9.90;99.90
53264;DHT22;39153;52.680;6.172;2023-03-19T04:01:06;9.80;99.90
53264;DHT22;39153;52.680;6.172;2023-03-19T04:03:32;9.80;99.90
53264;DHT22;39153;52.680;6.172;2023-03-19T04:05:58;9.70;99.90
53264;DHT22;39153;52.680;6.172;2023-03-19T04:08:24;9.70;99.90
53264;DHT22;39153;52.680;6.172;2023-03-19T04:10:49;9.60;99.90
53264;DHT22;39153;52.680;6.172;2023-03-19T04:13:15;9.70;99.90
53264;DHT22;39153;52.680;6.172;2023-03-19T04:15:42;9.70;99.90
53264;DHT22;39153;52.680;6.172;2023-03-19T04:18:08;9.60;99.90
53264;DHT22;39153;52.680;6.172;2023-03-19T04:20:33;9.60;99.90
53264;DHT22;39153;52.680;6.172;2023-03-19T04:23:00;9.60;99.90
53264;DHT22;39153;52.680;6.172;2023-03-19T04:25:27;9.50;99.90
53264;DHT22;39153;52.680;6.172;2023-03-19T04:27:52;9.50;99.90
53264;DHT22;39153;52.680;6.172;2023-03-19T04:30:21;9.60;99.90
53264;DHT22;39153;52.680;6.172;2023-03-19T04:32:46;9.50;99.90
53264;DHT22;39153;52.680;6.172;2023-03-19T04:35:12;9.60;99.90
53264;DHT22;39153;52.680;6.172;2023-03-19T04:37:38;9.40;99.90
53264;DHT22;39153;52.680;6.172;2023-03-19T04:40:04;9.40;99.90
53264;DHT22;39153;52.680;6.172;2023-03-19T04:42:30;9.30;99.90
53264;DHT22;39153;52.680;6.172;2023-03-19T04:44:56;9.40;99.90
53264;DHT22;39153;52.680;6.172;2023-03-19T04:47:22;9.30;99.90
53264;DHT22;39153;52.680;6.172;2023-03-19T04:49:47;9.30;99.90
53264;DHT22;39153;52.680;6.172;2023-03-19T04:52:13;9.30;99.90
53264;DHT22;39153;52.680;6.172;2023-03-19T04:54:39;9.20;99.90
53264;DHT22;39153;52.680;6.172;2023-03-19T04:57:04;9.00;99.90
53264;DHT22;39153;52.680;6.172;2023-03-19T04:59:30;9.10;99.90
53264;DHT22;39153;52.680;6.172;2023-03-19T05:01:56;9.10;99.90
53264;DHT22;39153;52.680;6.172;2023-03-19T05:04:21;9.10;99.90
53264;DHT22;39153;52.680;6.172;2023-03-19T05:06:48;9.00;99.90
53264;DHT22;39153;52.680;6.172;2023-03-19T05:09:14;9.00;99.90
53264;DHT22;39153;52.680;6.172;2023-03-19T05:11:40;8.90;99.90
53264;DHT22;39153;52.680;6.172;2023-03-19T05:14:06;8.90;99.90
53264;DHT22;39153;52.680;6.172;2023-03-19T05:16:33;8.90;99.90
53264;DHT22;39153;52.680;6.172;2023-03-19T05:19:00;8.80;99.90
53264;DHT22;39153;52.680;6.172;2023-03-19T05:21:25;8.80;99.90
53264;DHT22;39153;52.680;6.172;2023-03-19T05:23:52;8.70;99.90
53264;DHT22;39153;52.680;6.172;2023-03-19T05:26:19;8.80;99.90
53264;DHT22;39153;52.680;6.172;2023-03-19T05:28:46;8.70;99.90
53264;DHT22;39153;52.680;6.172;2023-03-19T05:31:11;8.70;99.90
53264;DHT22;39153;52.680;6.172;2023-03-19T05:33:37;8.80;99.90
53264;DHT22;39153;52.680;6.172;2023-03-19T05:36:03;8.70;99.90
53264;DHT22;39153;52.680;6.172;2023-03-19T05:38:29;8.80;99.90
53264;DHT22;39153;52.680;6.172;2023-03-19T05:40:54;8.60;99.90
53264;DHT22;39153;52.680;6.172;2023-03-19T05:43:20;8.60;99.90
53264;DHT22;39153;52.680;6.172;2023-03-19T05:45:50;8.70;99.90
53264;DHT22;39153;52.680;6.172;2023-03-19T05:48:19;8.50;99.90
53264;DHT22;39153;52.680;6.172;2023-03-19T05:50:44;8.60;99.90
53264;DHT22;39153;52.680;6.172;2023-03-19T05:53:10;8.60;99.90
53264;DHT22;39153;52.680;6.172;2023-03-19T05:55:36;8.50;99.90
53264;DHT22;39153;52.680;6.172;2023-03-19T05:58:01;8.60;99.90
53264;DHT22;39153;52.680;6.172;2023-03-19T06:00:27;8.40;99.90
53264;DHT22;39153;52.680;6.172;2023-03-19T06:02:52;8.60;99.90
53264;DHT22;39153;52.680;6.172;2023-03-19T06:05:19;8.50;99.90
53264;DHT22;39153;52.680;6.172;2023-03-19T06:07:45;8.40;99.90
53264;DHT22;39153;52.680;6.172;2023-03-19T06:10:11;8.60;99.90
53264;DHT22;39153;52.680;6.172;2023-03-19T06:12:37;8.30;99.90
53264;DHT22;39153;52.680;6.172;2023-03-19T06:15:03;8.40;99.90
53264;DHT22;39153;52.680;6.172;2023-03-19T06:17:29;8.60;99.90
53264;DHT22;39153;52.680;6.172;2023-03-19T06:19:55;8.50;99.90
53264;DHT22;39153;52.680;6.172;2023-03-19T06:22:20;8.50;99.90
53264;DHT22;39153;52.680;6.172;2023-03-19T06:24:46;8.40;99.90
53264;DHT22;39153;52.680;6.172;2023-03-19T06:27:12;8.50;99.90
53264;DHT22;39153;52.680;6.172;2023-03-19T06:29:38;8.50;99.90
53264;DHT22;39153;52.680;6.172;2023-03-19T06:32:03;8.50;99.90
53264;DHT22;39153;52.680;6.172;2023-03-19T06:34:29;8.60;99.90
53264;DHT22;39153;52.680;6.172;2023-03-19T06:36:55;8.40;99.90
53264;DHT22;39153;52.680;6.172;2023-03-19T06:39:21;8.60;99.90
53264;DHT22;39153;52.680;6.172;2023-03-19T06:41:47;8.60;99.90
53264;DHT22;39153;52.680;6.172;2023-03-19T06:44:13;8.70;99.90
53264;DHT22;39153;52.680;6.172;2023-03-19T06:46:38;8.60;99.90
53264;DHT22;39153;52.680;6.172;2023-03-19T06:49:04;8.90;99.90
53264;DHT22;39153;52.680;6.172;2023-03-19T06:51:30;8.70;99.90
53264;DHT22;39153;52.680;6.172;2023-03-19T06:53:56;8.90;99.90
53264;DHT22;39153;52.680;6.172;2023-03-19T06:56:21;8.80;99.90
53264;DHT22;39153;52.680;6.172;2023-03-19T06:58:47;9.00;99.90
53264;DHT22;39153;52.680;6.172;2023-03-19T07:01:13;9.00;99.90
53264;DHT22;39153;52.680;6.172;2023-03-19T07:03:38;8.90;99.90
53264;DHT22;39153;52.680;6.172;2023-03-19T07:06:05;8.90;99.90
53264;DHT22;39153;52.680;6.172;2023-03-19T07:08:31;9.00;99.90
53264;DHT22;39153;52.680;6.172;2023-03-19T07:11:06;8.90;99.90
53264;DHT22;39153;52.680;6.172;2023-03-19T07:13:32;9.10;99.90
53264;DHT22;39153;52.680;6.172;2023-03-19T07:15:58;9.30;99.90
53264;DHT22;39153;52.680;6.172;2023-03-19T07:18:24;9.10;99.90
53264;DHT22;39153;52.680;6.172;2023-03-19T07:20:51;9.40;99.90
53264;DHT22;39153;52.680;6.172;2023-03-19T07:23:17;9.20;99.90
53264;DHT22;39153;52.680;6.172;2023-03-19T07:25:43;9.50;99.90
53264;DHT22;39153;52.680;6.172;2023-03-19T07:28:09;9.50;99.90
53264;DHT22;39153;52.680;6.172;2023-03-19T07:30:35;9.60;99.90
53264;DHT22;39153;52.680;6.172;2023-03-19T07:33:03;9.70;99.90
53264;DHT22;39153;52.680;6.172;2023-03-19T07:35:29;9.70;99.90
53264;DHT22;39153;52.680;6.172;2023-03-19T07:37:54;9.70;99.90
53264;DHT22;39153;52.680;6.172;2023-03-19T07:40:20;9.80;99.90
53264;DHT22;39153;52.680;6.172;2023-03-19T07:42:46;10.00;99.90
53264;DHT22;39153;52.680;6.172;2023-03-19T07:45:12;9.90;99.90
53264;DHT22;39153;52.680;6.172;2023-03-19T07:47:37;10.00;99.90
53264;DHT22;39153;52.680;6.172;2023-03-19T07:50:04;10.00;99.90
53264;DHT22;39153;52.680;6.172;2023-03-19T07:52:31;10.10;99.90
53264;DHT22;39153;52.680;6.172;2023-03-19T07:54:56;10.10;99.90
53264;DHT22;39153;52.680;6.172;2023-03-19T07:57:22;10.00;99.90
53264;DHT22;39153;52.680;6.172;2023-03-19T07:59:50;10.20;99.90
53264;DHT22;39153;52.680;6.172;2023-03-19T08:02:16;10.20;99.90
53264;DHT22;39153;52.680;6.172;2023-03-19T08:04:42;10.10;99.90
53264;DHT22;39153;52.680;6.172;2023-03-19T08:07:08;10.30;99.90
53264;DHT22;39153;52.680;6.172;2023-03-19T08:09:38;10.10;99.90
53264;DHT22;39153;52.680;6.172;2023-03-19T08:12:07;10.30;99.90
53264;DHT22;39153;52.680;6.172;2023-03-19T08:14:33;10.30;99.90
53264;DHT22;39153;52.680;6.172;2023-03-19T08:16:59;10.10;99.90
53264;DHT22;39153;52.680;6.172;2023-03-19T08:19:25;10.20;99.90
53264;DHT22;39153;52.680;6.172;2023-03-19T08:21:51;10.20;99.90
53264;DHT22;39153;52.680;6.172;2023-03-19T08:24:17;10.20;99.90
53264;DHT22;39153;52.680;6.172;2023-03-19T08:26:43;10.30;99.90
53264;DHT22;39153;52.680;6.172;2023-03-19T08:29:08;10.30;99.90
53264;DHT22;39153;52.680;6.172;2023-03-19T08:31:34;10.30;99.90
53264;DHT22;39153;52.680;6.172;2023-03-19T08:34:00;10.40;99.90
53264;DHT22;39153;52.680;6.172;2023-03-19T08:36:27;10.40;99.90
53264;DHT22;39153;52.680;6.172;2023-03-19T08:38:53;10.30;99.90
53264;DHT22;39153;52.680;6.172;2023-03-19T08:41:20;10.30;99.90
53264;DHT22;39153;52.680;6.172;2023-03-19T08:43:46;10.40;99.90
53264;DHT22;39153;52.680;6.172;2023-03-19T08:46:11;10.50;99.90
53264;DHT22;39153;52.680;6.172;2023-03-19T08:48:37;10.50;99.90
53264;DHT22;39153;52.680;6.172;2023-03-19T08:51:03;10.60;99.90
53264;DHT22;39153;52.680;6.172;2023-03-19T08:53:30;10.60;99.90
53264;DHT22;39153;52.680;6.172;2023-03-19T08:55:58;10.60;99.90
53264;DHT22;39153;52.680;6.172;2023-03-19T08:58:25;10.70;99.90
53264;DHT22;39153;52.680;6.172;2023-03-19T09:00:51;10.70;99.90
53264;DHT22;39153;52.680;6.172;2023-03-19T09:03:18;10.70;99.90
53264;DHT22;39153;52.680;6.172;2023-03-19T09:05:44;10.70;99.90
53264;DHT22;39153;52.680;6.172;2023-03-19T09:08:09;10.70;99.90
53264;DHT22;39153;52.680;6.172;2023-03-19T09:10:36;10.80;99.90
53264;DHT22;39153;52.680;6.172;2023-03-19T09:13:02;10.70;99.90
53264;DHT22;39153;52.680;6.172;2023-03-19T09:15:27;10.70;99.90
53264;DHT22;39153;52.680;6.172;2023-03-19T09:17:53;10.80;99.90
53264;DHT22;39153;52.680;6.172;2023-03-19T09:20:19;10.80;99.90
53264;DHT22;39153;52.680;6.172;2023-03-19T09:22:45;10.70;99.90
53264;DHT22;39153;52.680;6.172;2023-03-19T09:25:11;10.70;99.90
53264;DHT22;39153;52.680;6.172;2023-03-19T09:27:37;10.70;99.90
53264;DHT22;39153;52.680;6.172;2023-03-19T09:30:03;10.70;99.90
53264;DHT22;39153;52.680;6.172;2023-03-19T09:32:29;10.80;99.90
53264;DHT22;39153;52.680;6.172;2023-03-19T09:34:55;10.90;99.90
53264;DHT22;39153;52.680;6.172;2023-03-19T09:37:21;10.70;99.90
53264;DHT22;39153;52.680;6.172;2023-03-19T09:39:47;10.70;99.90
53264;DHT22;39153;52.680;6.172;2023-03-19T09:42:32;10.70;99.90
53264;DHT22;39153;52.680;6.172;2023-03-19T09:45:02;10.60;99.90
53264;DHT22;39153;52.680;6.172;2023-03-19T09:47:31;10.70;99.90
53264;DHT22;39153;52.680;6.172;2023-03-19T09:50:16;10.60;99.90
53264;DHT22;39153;52.680;6.172;2023-03-19T09:57:55;10.70;99.90
53264;DHT22;39153;52.680;6.172;2023-03-19T10:00:35;10.70;99.90
53264;DHT22;39153;52.680;6.172;2023-03-19T10:14:59;10.80;99.90
53264;DHT22;39153;52.680;6.172;2023-03-19T10:17:31;10.80;99.90
53264;DHT22;39153;52.680;6.172;2023-03-19T10:20:09;10.80;99.90
53264;DHT22;39153;52.680;6.172;2023-03-19T10:22:44;10.80;99.90
53264;DHT22;39153;52.680;6.172;2023-03-19T10:25:19;10.80;99.90
53264;DHT22;39153;52.680;6.172;2023-03-19T10:27:46;10.80;99.90
53264;DHT22;39153;52.680;6.172;2023-03-19T10:30:16;10.90;99.90
53264;DHT22;39153;52.680;6.172;2023-03-19T10:32:44;10.90;99.90
53264;DHT22;39153;52.680;6.172;2023-03-19T10:35:31;11.00;99.90
53264;DHT22;39153;52.680;6.172;2023-03-19T10:38:22;11.20;99.90
53264;DHT22;39153;52.680;6.172;2023-03-19T10:41:30;11.10;99.90
53264;DHT22;39153;52.680;6.172;2023-03-19T10:44:02;11.20;99.90
53264;DHT22;39153;52.680;6.172;2023-03-19T10:46:37;11.20;99.90
53264;DHT22;39153;52.680;6.172;2023-03-19T10:49:03;11.40;99.90
53264;DHT22;39153;52.680;6.172;2023-03-19T10:51:30;11.50;99.90
53264;DHT22;39153;52.680;6.172;2023-03-19T10:53:59;11.50;99.90
53264;DHT22;39153;52.680;6.172;2023-03-19T10:56:27;11.60;99.90
53264;DHT22;39153;52.680;6.172;2023-03-19T11:01:32;11.80;99.90
53264;DHT22;39153;52.680;6.172;2023-03-19T11:04:01;11.90;99.90
53264;DHT22;39153;52.680;6.172;2023-03-19T11:09:02;12.20;99.90
53264;DHT22;39153;52.680;6.172;2023-03-19T11:11:48;12.30;99.90
53264;DHT22;39153;52.680;6.172;2023-03-19T11:14:18;12.50;99.90
53264;DHT22;39153;52.680;6.172;2023-03-19T11:19:52;12.60;99.90
53264;DHT22;39153;52.680;6.172;2023-03-19T11:22:27;12.80;99.90
53264;DHT22;39153;52.680;6.172;2023-03-19T11:27:32;12.80;99.90
53264;DHT22;39153;52.680;6.172;2023-03-19T11:30:00;12.90;99.90
53264;DHT22;39153;52.680;6.172;2023-03-19T11:32:40;13.00;99.90
53264;DHT22;39153;52.680;6.172;2023-03-19T11:43:08;13.70;99.90
53264;DHT22;39153;52.680;6.172;2023-03-19T11:51:31;13.60;99.90
53264;DHT22;39153;52.680;6.172;2023-03-19T11:54:20;13.80;99.90
53264;DHT22;39153;52.680;6.172;2023-03-19T11:56:57;13.90;99.90
53264;DHT22;39153;52.680;6.172;2023-03-19T12:00:10;14.10;99.90
53264;DHT22;39153;52.680;6.172;2023-03-19T12:05:53;14.20;99.90
53264;DHT22;39153;52.680;6.172;2023-03-19T12:11:15;14.20;99.90
53264;DHT22;39153;52.680;6.172;2023-03-19T12:13:51;14.00;99.90
53264;DHT22;39153;52.680;6.172;2023-03-19T12:19:29;13.80;99.90
53264;DHT22;39153;52.680;6.172;2023-03-19T12:22:22;13.80;99.90
53264;DHT22;39153;52.680;6.172;2023-03-19T12:25:07;13.80;99.90
53264;DHT22;39153;52.680;6.172;2023-03-19T12:27:48;13.80;99.90
53264;DHT22;39153;52.680;6.172;2023-03-19T12:30:31;13.80;99.90
53264;DHT22;39153;52.680;6.172;2023-03-19T12:35:36;13.70;99.90
53264;DHT22;39153;52.680;6.172;2023-03-19T12:40:59;13.50;99.90
53264;DHT22;39153;52.680;6.172;2023-03-19T12:51:38;13.50;99.90
53264;DHT22;39153;52.680;6.172;2023-03-19T13:02:34;13.80;99.90
53264;DHT22;39153;52.680;6.172;2023-03-19T13:05:08;13.80;99.90
53264;DHT22;39153;52.680;6.172;2023-03-19T13:10:36;14.10;99.90
53264;DHT22;39153;52.680;6.172;2023-03-19T13:13:22;14.00;99.90
53264;DHT22;39153;52.680;6.172;2023-03-19T13:15:53;13.80;99.90
53264;DHT22;39153;52.680;6.172;2023-03-19T13:23:35;13.40;99.90
53264;DHT22;39153;52.680;6.172;2023-03-19T13:26:04;13.40;99.90
53264;DHT22;39153;52.680;6.172;2023-03-19T13:28:38;13.40;99.90
53264;DHT22;39153;52.680;6.172;2023-03-19T13:31:20;13.40;99.90
53264;DHT22;39153;52.680;6.172;2023-03-19T13:33:54;13.40;99.90
53264;DHT22;39153;52.680;6.172;2023-03-19T13:36:26;13.30;99.90
53264;DHT22;39153;52.680;6.172;2023-03-19T13:38:52;13.10;99.90
53264;DHT22;39153;52.680;6.172;2023-03-19T13:43:59;12.90;99.90
53264;DHT22;39153;52.680;6.172;2023-03-19T13:46:28;12.90;99.90
53264;DHT22;39153;52.680;6.172;2023-03-19T13:49:23;13.00;99.90
53264;DHT22;39153;52.680;6.172;2023-03-19T13:51:50;13.10;99.90
53264;DHT22;39153;52.680;6.172;2023-03-19T13:54:18;13.00;99.90
53264;DHT22;39153;52.680;6.172;2023-03-19T13:59:38;12.90;99.90
53264;DHT22;39153;52.680;6.172;2023-03-19T14:07:34;12.70;99.90
53264;DHT22;39153;52.680;6.172;2023-03-19T14:12:44;12.70;99.90
53264;DHT22;39153;52.680;6.172;2023-03-19T14:17:39;12.60;99.90
53264;DHT22;39153;52.680;6.172;2023-03-19T14:26:12;12.50;99.90
53264;DHT22;39153;52.680;6.172;2023-03-19T14:29:03;12.40;99.90
53264;DHT22;39153;52.680;6.172;2023-03-19T14:31:49;12.40;99.90
53264;DHT22;39153;52.680;6.172;2023-03-19T14:49:55;12.10;99.90
53264;DHT22;39153;52.680;6.172;2023-03-19T14:52:39;12.10;99.90
53264;DHT22;39153;52.680;6.172;2023-03-19T14:55:13;12.00;99.90
53264;DHT22;39153;52.680;6.172;2023-03-19T14:57:39;12.00;99.90
53264;DHT22;39153;52.680;6.172;2023-03-19T15:00:12;11.90;99.90
53264;DHT22;39153;52.680;6.172;2023-03-19T15:02:49;11.90;99.90
53264;DHT22;39153;52.680;6.172;2023-03-19T15:05:30;11.80;99.90
53264;DHT22;39153;52.680;6.172;2023-03-19T15:08:05;11.80;99.90
53264;DHT22;39153;52.680;6.172;2023-03-19T15:13:54;11.80;99.90
53264;DHT22;39153;52.680;6.172;2023-03-19T15:16:53;11.80;99.90
53264;DHT22;39153;52.680;6.172;2023-03-19T15:19:25;11.70;99.90
53264;DHT22;39153;52.680;6.172;2023-03-19T15:21:51;11.60;99.90
53264;DHT22;39153;52.680;6.172;2023-03-19T15:24:27;11.50;99.90
53264;DHT22;39153;52.680;6.172;2023-03-19T15:26:54;11.40;99.90
53264;DHT22;39153;52.680;6.172;2023-03-19T15:29:32;11.30;99.90
53264;DHT22;39153;52.680;6.172;2023-03-19T15:31:58;11.30;99.90
53264;DHT22;39153;52.680;6.172;2023-03-19T15:34:26;11.40;99.90
53264;DHT22;39153;52.680;6.172;2023-03-19T15:37:03;11.40;99.90
53264;DHT22;39153;52.680;6.172;2023-03-19T15:39:35;11.40;99.90
53264;DHT22;39153;52.680;6.172;2023-03-19T15:42:03;11.40;99.90
53264;DHT22;39153;52.680;6.172;2023-03-19T15:44:41;11.40;99.90
53264;DHT22;39153;52.680;6.172;2023-03-19T15:47:11;11.40;99.90
53264;DHT22;39153;52.680;6.172;2023-03-19T15:49:41;11.30;99.90
53264;DHT22;39153;52.680;6.172;2023-03-19T15:52:11;11.40;99.90
53264;DHT22;39153;52.680;6.172;2023-03-19T15:54:40;11.40;99.90
53264;DHT22;39153;52.680;6.172;2023-03-19T15:57:07;11.40;99.90
53264;DHT22;39153;52.680;6.172;2023-03-19T15:59:34;11.40;99.90
53264;DHT22;39153;52.680;6.172;2023-03-19T16:02:02;11.40;99.90
53264;DHT22;39153;52.680;6.172;2023-03-19T16:04:28;11.40;99.90
53264;DHT22;39153;52.680;6.172;2023-03-19T16:06:57;11.40;99.90
53264;DHT22;39153;52.680;6.172;2023-03-19T16:11:56;11.50;99.90
53264;DHT22;39153;52.680;6.172;2023-03-19T16:14:40;11.50;99.90
53264;DHT22;39153;52.680;6.172;2023-03-19T16:17:14;12.10;99.90
53264;DHT22;39153;52.680;6.172;2023-03-19T16:22:20;11.50;99.90
53264;DHT22;39153;52.680;6.172;2023-03-19T16:24:48;11.50;99.90
53264;DHT22;39153;52.680;6.172;2023-03-19T16:27:17;11.50;99.90
53264;DHT22;39153;52.680;6.172;2023-03-19T16:29:46;11.50;99.90
53264;DHT22;39153;52.680;6.172;2023-03-19T16:32:26;11.50;99.90
53264;DHT22;39153;52.680;6.172;2023-03-19T16:34:52;11.60;99.90
53264;DHT22;39153;52.680;6.172;2023-03-19T16:42:42;11.60;99.90
53264;DHT22;39153;52.680;6.172;2023-03-19T16:47:40;11.70;99.90
53264;DHT22;39153;52.680;6.172;2023-03-19T16:50:07;11.60;99.90
53264;DHT22;39153;52.680;6.172;2023-03-19T16:52:33;11.60;99.90
53264;DHT22;39153;52.680;6.172;2023-03-19T16:55:02;11.50;99.90
53264;DHT22;39153;52.680;6.172;2023-03-19T16:57:28;11.50;99.90
53264;DHT22;39153;52.680;6.172;2023-03-19T16:59:54;11.60;99.90
53264;DHT22;39153;52.680;6.172;2023-03-19T17:02:20;11.50;99.90
53264;DHT22;39153;52.680;6.172;2023-03-19T17:04:46;11.60;99.90
53264;DHT22;39153;52.680;6.172;2023-03-19T17:07:11;11.60;99.90
53264;DHT22;39153;52.680;6.172;2023-03-19T17:09:37;11.60;99.90
53264;DHT22;39153;52.680;6.172;2023-03-19T17:12:07;11.60;99.90
53264;DHT22;39153;52.680;6.172;2023-03-19T17:14:33;11.50;99.90
53264;DHT22;39153;52.680;6.172;2023-03-19T17:16:59;11.50;99.90
53264;DHT22;39153;52.680;6.172;2023-03-19T17:19:35;11.40;99.90
53264;DHT22;39153;52.680;6.172;2023-03-19T17:22:01;11.30;99.90
53264;DHT22;39153;52.680;6.172;2023-03-19T17:24:29;11.30;99.90
53264;DHT22;39153;52.680;6.172;2023-03-19T17:27:00;11.20;99.90
53264;DHT22;39153;52.680;6.172;2023-03-19T17:29:27;11.10;99.90
53264;DHT22;39153;52.680;6.172;2023-03-19T17:31:55;11.00;99.90
53264;DHT22;39153;52.680;6.172;2023-03-19T17:34:23;10.90;99.90
53264;DHT22;39153;52.680;6.172;2023-03-19T17:36:56;10.80;99.90
53264;DHT22;39153;52.680;6.172;2023-03-19T17:39:23;10.70;99.90
53264;DHT22;39153;52.680;6.172;2023-03-19T17:41:50;10.60;99.90
53264;DHT22;39153;52.680;6.172;2023-03-19T17:44:16;10.60;99.90
53264;DHT22;39153;52.680;6.172;2023-03-19T17:46:46;10.50;99.90
53264;DHT22;39153;52.680;6.172;2023-03-19T17:51:44;10.30;99.90
53264;DHT22;39153;52.680;6.172;2023-03-19T17:54:11;10.40;99.90
53264;DHT22;39153;52.680;6.172;2023-03-19T17:56:37;10.30;99.90
53264;DHT22;39153;52.680;6.172;2023-03-19T17:59:03;10.30;99.90
53264;DHT22;39153;52.680;6.172;2023-03-19T18:01:29;10.20;99.90
53264;DHT22;39153;52.680;6.172;2023-03-19T18:03:56;10.10;99.90
53264;DHT22;39153;52.680;6.172;2023-03-19T18:06:24;10.00;99.90
53264;DHT22;39153;52.680;6.172;2023-03-19T18:08:50;10.00;99.90